sensor_id;sensor_type;location;lat;lon;timestamp;P1;durP1;ratioP1;P2;durP2;ratioP2
19446;SDS011;9862;49.462;11.054;2023-03-01T00:00:06;19.25;;;10.93;;
19446;SDS011;9862;49.462;11.054;2023-03-01T00:02:35;18.05;;;10.52;;
19446;SDS011;9862;49.462;11.054;2023-03-01T00:05:02;17.48;;;11.32;;
19446;SDS011;9862;49.462;11.054;2023-03-01T00:07:30;19.95;;;10.13;;
19446;SDS011;9862;49.462;11.054;2023-03-01T00:09:57;22.02;;;11.35;;
19446;SDS011;9862;49.462;11.054;2023-03-01T00:12:23;21.90;;;11.10;;
19446;SDS011;9862;49.462;11.054;2023-03-01T00:14:50;23.33;;;10.82;;
19446;SDS011;9862;49.462;11.054;2023-03-01T00:17:16;20.40;;;10.98;;
19446;SDS011;9862;49.462;11.054;2023-03-01T00:19:43;18.65;;;10.30;;
19446;SDS011;9862;49.462;11.054;2023-03-01T00:22:10;17.00;;;10.32;;
19446;SDS011;9862;49.462;11.054;2023-03-01T00:24:37;21.27;;;10.90;;
19446;SDS011;9862;49.462;11.054;2023-03-01T00:27:04;18.25;;;9.90;;
19446;SDS011;9862;49.462;11.054;2023-03-01T00:29:31;18.70;;;10.98;;
19446;SDS011;9862;49.462;11.054;2023-03-01T00:31:57;19.80;;;10.70;;
19446;SDS011;9862;49.462;11.054;2023-03-01T00:34:24;20.67;;;11.35;;
19446;SDS011;9862;49.462;11.054;2023-03-01T00:36:50;20.70;;;11.27;;
19446;SDS011;9862;49.462;11.054;2023-03-01T00:39:17;22.80;;;10.63;;
19446;SDS011;9862;49.462;11.054;2023-03-01T00:41:45;19.70;;;10.48;;
19446;SDS011;9862;49.462;11.054;2023-03-01T00:44:11;18.25;;;10.50;;
19446;SDS011;9862;49.462;11.054;2023-03-01T00:46:38;24.55;;;11.07;;
19446;SDS011;9862;49.462;11.054;2023-03-01T00:49:04;20.40;;;9.68;;
19446;SDS011;9862;49.462;11.054;2023-03-01T00:51:31;21.23;;;10.95;;
19446;SDS011;9862;49.462;11.054;2023-03-01T00:53:59;22.65;;;10.15;;
19446;SDS011;9862;49.462;11.054;2023-03-01T00:56:27;19.45;;;10.60;;
19446;SDS011;9862;49.462;11.054;2023-03-01T00:58:56;21.27;;;11.13;;
19446;SDS011;9862;49.462;11.054;2023-03-01T01:01:24;21.60;;;10.90;;
19446;SDS011;9862;49.462;11.054;2023-03-01T01:03:53;19.98;;;10.38;;
19446;SDS011;9862;49.462;11.054;2023-03-01T01:06:21;19.10;;;10.60;;
19446;SDS011;9862;49.462;11.054;2023-03-01T01:08:49;18.20;;;10.85;;
19446;SDS011;9862;49.462;11.054;2023-03-01T01:11:17;20.95;;;11.77;;
19446;SDS011;9862;49.462;11.054;2023-03-01T01:13:44;20.55;;;10.75;;
19446;SDS011;9862;49.462;11.054;2023-03-01T01:16:13;19.83;;;10.90;;
19446;SDS011;9862;49.462;11.054;2023-03-01T01:18:39;21.33;;;10.73;;
19446;SDS011;9862;49.462;11.054;2023-03-01T01:21:07;22.13;;;10.55;;
19446;SDS011;9862;49.462;11.054;2023-03-01T01:23:35;21.67;;;11.63;;
19446;SDS011;9862;49.462;11.054;2023-03-01T01:26:05;24.85;;;11.52;;
19446;SDS011;9862;49.462;11.054;2023-03-01T01:28:33;19.52;;;10.02;;
19446;SDS011;9862;49.462;11.054;2023-03-01T01:30:59;22.38;;;11.13;;
19446;SDS011;9862;49.462;11.054;2023-03-01T01:33:27;22.00;;;11.98;;
19446;SDS011;9862;49.462;11.054;2023-03-01T01:35:54;24.00;;;10.40;;
19446;SDS011;9862;49.462;11.054;2023-03-01T01:38:20;20.92;;;11.30;;
19446;SDS011;9862;49.462;11.054;2023-03-01T01:40:47;19.52;;;10.57;;
19446;SDS011;9862;49.462;11.054;2023-03-01T01:43:16;21.35;;;11.27;;
19446;SDS011;9862;49.462;11.054;2023-03-01T01:45:45;22.40;;;12.15;;
19446;SDS011;9862;49.462;11.054;2023-03-01T01:48:13;20.45;;;11.07;;
19446;SDS011;9862;49.462;11.054;2023-03-01T01:50:44;22.67;;;11.18;;
19446;SDS011;9862;49.462;11.054;2023-03-01T01:53:14;19.98;;;11.02;;
19446;SDS011;9862;49.462;11.054;2023-03-01T01:55:44;21.10;;;11.02;;
19446;SDS011;9862;49.462;11.054;2023-03-01T01:58:15;21.40;;;11.45;;
19446;SDS011;9862;49.462;11.054;2023-03-01T02:00:45;20.55;;;11.50;;
19446;SDS011;9862;49.462;11.054;2023-03-01T02:03:12;19.88;;;10.73;;
19446;SDS011;9862;49.462;11.054;2023-03-01T02:05:45;21.33;;;11.70;;
19446;SDS011;9862;49.462;11.054;2023-03-01T02:08:18;23.73;;;11.70;;
19446;SDS011;9862;49.462;11.054;2023-03-01T02:10:47;21.25;;;11.32;;
19446;SDS011;9862;49.462;11.054;2023-03-01T02:13:15;19.90;;;11.13;;
19446;SDS011;9862;49.462;11.054;2023-03-01T02:15:42;19.73;;;11.80;;
19446;SDS011;9862;49.462;11.054;2023-03-01T02:18:10;22.20;;;11.23;;
19446;SDS011;9862;49.462;11.054;2023-03-01T02:20:43;23.02;;;11.25;;
19446;SDS011;9862;49.462;11.054;2023-03-01T02:23:20;23.13;;;11.93;;
19446;SDS011;9862;49.462;11.054;2023-03-01T02:25:49;20.35;;;10.80;;
19446;SDS011;9862;49.462;11.054;2023-03-01T02:28:27;19.98;;;10.60;;
19446;SDS011;9862;49.462;11.054;2023-03-01T02:30:56;24.95;;;12.40;;
19446;SDS011;9862;49.462;11.054;2023-03-01T02:33:40;23.45;;;11.82;;
19446;SDS011;9862;49.462;11.054;2023-03-01T02:36:10;20.95;;;11.13;;
19446;SDS011;9862;49.462;11.054;2023-03-01T02:38:46;22.02;;;11.80;;
19446;SDS011;9862;49.462;11.054;2023-03-01T02:41:15;25.20;;;12.20;;
19446;SDS011;9862;49.462;11.054;2023-03-01T02:43:45;23.52;;;11.75;;
19446;SDS011;9862;49.462;11.054;2023-03-01T02:46:14;23.15;;;11.57;;
19446;SDS011;9862;49.462;11.054;2023-03-01T02:48:42;21.55;;;11.32;;
19446;SDS011;9862;49.462;11.054;2023-03-01T02:51:14;20.13;;;11.10;;
19446;SDS011;9862;49.462;11.054;2023-03-01T02:53:53;24.90;;;11.52;;
19446;SDS011;9862;49.462;11.054;2023-03-01T02:56:30;22.48;;;12.10;;
19446;SDS011;9862;49.462;11.054;2023-03-01T02:58:58;23.85;;;11.18;;
19446;SDS011;9862;49.462;11.054;2023-03-01T03:01:26;21.65;;;11.65;;
19446;SDS011;9862;49.462;11.054;2023-03-01T03:04:01;18.58;;;10.52;;
19446;SDS011;9862;49.462;11.054;2023-03-01T03:06:28;21.02;;;10.52;;
19446;SDS011;9862;49.462;11.054;2023-03-01T03:08:55;22.92;;;11.95;;
19446;SDS011;9862;49.462;11.054;2023-03-01T03:11:21;20.33;;;10.15;;
19446;SDS011;9862;49.462;11.054;2023-03-01T03:13:48;22.48;;;12.18;;
19446;SDS011;9862;49.462;11.054;2023-03-01T03:16:18;24.05;;;11.98;;
19446;SDS011;9862;49.462;11.054;2023-03-01T03:18:46;21.63;;;11.23;;
19446;SDS011;9862;49.462;11.054;2023-03-01T03:21:14;28.30;;;14.10;;
19446;SDS011;9862;49.462;11.054;2023-03-01T03:23:42;29.08;;;13.50;;
19446;SDS011;9862;49.462;11.054;2023-03-01T03:26:09;23.40;;;12.70;;
19446;SDS011;9862;49.462;11.054;2023-03-01T03:28:40;24.08;;;13.60;;
19446;SDS011;9862;49.462;11.054;2023-03-01T03:31:07;22.15;;;12.40;;
19446;SDS011;9862;49.462;11.054;2023-03-01T03:33:35;25.45;;;13.45;;
19446;SDS011;9862;49.462;11.054;2023-03-01T03:36:02;27.30;;;13.40;;
19446;SDS011;9862;49.462;11.054;2023-03-01T03:38:29;24.65;;;11.50;;
19446;SDS011;9862;49.462;11.054;2023-03-01T03:40:59;26.63;;;12.57;;
19446;SDS011;9862;49.462;11.054;2023-03-01T03:43:27;25.55;;;13.25;;
19446;SDS011;9862;49.462;11.054;2023-03-01T03:45:54;31.05;;;14.35;;
19446;SDS011;9862;49.462;11.054;2023-03-01T03:48:22;25.40;;;13.85;;
19446;SDS011;9862;49.462;11.054;2023-03-01T03:50:51;26.15;;;13.90;;
19446;SDS011;9862;49.462;11.054;2023-03-01T03:53:19;25.42;;;13.07;;
19446;SDS011;9862;49.462;11.054;2023-03-01T03:55:46;22.27;;;11.52;;
19446;SDS011;9862;49.462;11.054;2023-03-01T03:58:14;19.58;;;10.90;;
19446;SDS011;9862;49.462;11.054;2023-03-01T04:00:44;20.48;;;11.18;;
19446;SDS011;9862;49.462;11.054;2023-03-01T04:03:13;19.23;;;11.05;;
19446;SDS011;9862;49.462;11.054;2023-03-01T04:05:41;21.00;;;10.95;;
19446;SDS011;9862;49.462;11.054;2023-03-01T04:08:09;22.98;;;11.25;;
19446;SDS011;9862;49.462;11.054;2023-03-01T04:10:37;22.98;;;12.10;;
19446;SDS011;9862;49.462;11.054;2023-03-01T04:13:05;22.38;;;12.02;;
19446;SDS011;9862;49.462;11.054;2023-03-01T04:15:33;22.63;;;12.40;;
19446;SDS011;9862;49.462;11.054;2023-03-01T04:18:00;25.77;;;14.45;;
19446;SDS011;9862;49.462;11.054;2023-03-01T04:20:28;27.92;;;14.23;;
19446;SDS011;9862;49.462;11.054;2023-03-01T04:22:57;22.85;;;12.20;;
19446;SDS011;9862;49.462;11.054;2023-03-01T04:25:26;22.75;;;13.05;;
19446;SDS011;9862;49.462;11.054;2023-03-01T04:27:53;26.25;;;12.18;;
19446;SDS011;9862;49.462;11.054;2023-03-01T04:30:19;22.63;;;12.38;;
19446;SDS011;9862;49.462;11.054;2023-03-01T04:32:50;24.80;;;12.90;;
19446;SDS011;9862;49.462;11.054;2023-03-01T04:35:16;18.60;;;11.52;;
19446;SDS011;9862;49.462;11.054;2023-03-01T04:37:43;23.92;;;12.88;;
19446;SDS011;9862;49.462;11.054;2023-03-01T04:40:10;17.30;;;11.10;;
19446;SDS011;9862;49.462;11.054;2023-03-01T04:42:42;22.02;;;10.68;;
19446;SDS011;9862;49.462;11.054;2023-03-01T04:45:09;26.02;;;12.93;;
19446;SDS011;9862;49.462;11.054;2023-03-01T04:47:38;30.30;;;15.75;;
19446;SDS011;9862;49.462;11.054;2023-03-01T04:50:05;23.20;;;13.10;;
19446;SDS011;9862;49.462;11.054;2023-03-01T04:52:33;23.83;;;13.40;;
19446;SDS011;9862;49.462;11.054;2023-03-01T04:54:59;26.23;;;14.23;;
19446;SDS011;9862;49.462;11.054;2023-03-01T04:57:26;28.02;;;13.20;;
19446;SDS011;9862;49.462;11.054;2023-03-01T04:59:54;27.33;;;12.38;;
19446;SDS011;9862;49.462;11.054;2023-03-01T05:02:21;20.70;;;11.50;;
19446;SDS011;9862;49.462;11.054;2023-03-01T05:04:47;24.60;;;12.52;;
19446;SDS011;9862;49.462;11.054;2023-03-01T05:07:14;24.67;;;12.15;;
19446;SDS011;9862;49.462;11.054;2023-03-01T05:09:44;23.05;;;12.00;;
19446;SDS011;9862;49.462;11.054;2023-03-01T05:12:11;23.52;;;12.18;;
19446;SDS011;9862;49.462;11.054;2023-03-01T05:14:37;23.48;;;11.50;;
19446;SDS011;9862;49.462;11.054;2023-03-01T05:17:05;20.67;;;10.77;;
19446;SDS011;9862;49.462;11.054;2023-03-01T05:19:32;20.45;;;11.60;;
19446;SDS011;9862;49.462;11.054;2023-03-01T05:21:59;26.13;;;13.52;;
19446;SDS011;9862;49.462;11.054;2023-03-01T05:24:30;23.33;;;11.55;;
19446;SDS011;9862;49.462;11.054;2023-03-01T05:26:58;23.40;;;12.07;;
19446;SDS011;9862;49.462;11.054;2023-03-01T05:29:25;23.30;;;12.40;;
19446;SDS011;9862;49.462;11.054;2023-03-01T05:31:54;28.73;;;12.50;;
19446;SDS011;9862;49.462;11.054;2023-03-01T05:34:24;25.42;;;12.60;;
19446;SDS011;9862;49.462;11.054;2023-03-01T05:36:51;24.58;;;12.38;;
19446;SDS011;9862;49.462;11.054;2023-03-01T05:39:18;25.10;;;12.57;;
19446;SDS011;9862;49.462;11.054;2023-03-01T05:41:46;26.95;;;12.18;;
19446;SDS011;9862;49.462;11.054;2023-03-01T05:44:12;20.95;;;11.57;;
19446;SDS011;9862;49.462;11.054;2023-03-01T05:46:39;24.77;;;12.10;;
19446;SDS011;9862;49.462;11.054;2023-03-01T05:49:05;24.23;;;12.05;;
19446;SDS011;9862;49.462;11.054;2023-03-01T05:51:33;23.88;;;12.02;;
19446;SDS011;9862;49.462;11.054;2023-03-01T05:54:00;21.60;;;11.65;;
19446;SDS011;9862;49.462;11.054;2023-03-01T05:56:26;22.50;;;12.35;;
19446;SDS011;9862;49.462;11.054;2023-03-01T05:58:54;20.52;;;11.23;;
19446;SDS011;9862;49.462;11.054;2023-03-01T06:01:20;25.73;;;12.30;;
19446;SDS011;9862;49.462;11.054;2023-03-01T06:03:47;21.13;;;11.90;;
19446;SDS011;9862;49.462;11.054;2023-03-01T06:06:13;27.33;;;12.68;;
19446;SDS011;9862;49.462;11.054;2023-03-01T06:08:41;22.25;;;11.60;;
19446;SDS011;9862;49.462;11.054;2023-03-01T06:11:08;25.58;;;12.82;;
19446;SDS011;9862;49.462;11.054;2023-03-01T06:13:34;22.70;;;11.68;;
19446;SDS011;9862;49.462;11.054;2023-03-01T06:16:03;25.27;;;12.85;;
19446;SDS011;9862;49.462;11.054;2023-03-01T06:18:30;20.80;;;11.55;;
19446;SDS011;9862;49.462;11.054;2023-03-01T06:20:57;25.00;;;12.52;;
19446;SDS011;9862;49.462;11.054;2023-03-01T06:23:24;23.23;;;12.40;;
19446;SDS011;9862;49.462;11.054;2023-03-01T06:25:52;21.65;;;11.73;;
19446;SDS011;9862;49.462;11.054;2023-03-01T06:28:19;21.65;;;12.35;;
19446;SDS011;9862;49.462;11.054;2023-03-01T06:30:45;22.90;;;11.75;;
19446;SDS011;9862;49.462;11.054;2023-03-01T06:33:13;24.38;;;12.43;;
19446;SDS011;9862;49.462;11.054;2023-03-01T06:35:40;23.05;;;12.98;;
19446;SDS011;9862;49.462;11.054;2023-03-01T06:38:07;22.25;;;12.48;;
19446;SDS011;9862;49.462;11.054;2023-03-01T06:40:33;24.00;;;13.35;;
19446;SDS011;9862;49.462;11.054;2023-03-01T06:43:02;23.73;;;11.70;;
19446;SDS011;9862;49.462;11.054;2023-03-01T06:45:28;22.30;;;12.32;;
19446;SDS011;9862;49.462;11.054;2023-03-01T06:48:01;29.90;;;12.45;;
19446;SDS011;9862;49.462;11.054;2023-03-01T06:50:29;29.48;;;13.02;;
19446;SDS011;9862;49.462;11.054;2023-03-01T06:52:55;26.40;;;12.75;;
19446;SDS011;9862;49.462;11.054;2023-03-01T06:55:22;25.30;;;12.57;;
19446;SDS011;9862;49.462;11.054;2023-03-01T06:57:53;26.90;;;13.35;;
19446;SDS011;9862;49.462;11.054;2023-03-01T07:00:23;28.27;;;14.48;;
19446;SDS011;9862;49.462;11.054;2023-03-01T07:02:51;29.02;;;13.10;;
19446;SDS011;9862;49.462;11.054;2023-03-01T07:05:17;27.42;;;13.90;;
19446;SDS011;9862;49.462;11.054;2023-03-01T07:07:44;22.63;;;12.73;;
19446;SDS011;9862;49.462;11.054;2023-03-01T07:10:11;30.90;;;15.18;;
19446;SDS011;9862;49.462;11.054;2023-03-01T07:12:38;30.65;;;14.30;;
19446;SDS011;9862;49.462;11.054;2023-03-01T07:15:08;32.20;;;14.40;;
19446;SDS011;9862;49.462;11.054;2023-03-01T07:17:37;28.13;;;13.68;;
19446;SDS011;9862;49.462;11.054;2023-03-01T07:20:04;26.42;;;12.95;;
19446;SDS011;9862;49.462;11.054;2023-03-01T07:22:31;32.47;;;14.20;;
19446;SDS011;9862;49.462;11.054;2023-03-01T07:24:57;29.27;;;12.60;;
19446;SDS011;9862;49.462;11.054;2023-03-01T07:27:24;30.27;;;13.68;;
19446;SDS011;9862;49.462;11.054;2023-03-01T07:29:50;21.70;;;12.80;;
19446;SDS011;9862;49.462;11.054;2023-03-01T07:32:17;30.77;;;14.13;;
19446;SDS011;9862;49.462;11.054;2023-03-01T07:34:45;24.85;;;12.95;;
19446;SDS011;9862;49.462;11.054;2023-03-01T07:37:12;27.35;;;14.00;;
19446;SDS011;9862;49.462;11.054;2023-03-01T07:39:38;29.13;;;13.73;;
19446;SDS011;9862;49.462;11.054;2023-03-01T07:42:05;24.33;;;13.30;;
19446;SDS011;9862;49.462;11.054;2023-03-01T07:44:31;24.77;;;12.30;;
19446;SDS011;9862;49.462;11.054;2023-03-01T07:46:58;26.25;;;13.40;;
19446;SDS011;9862;49.462;11.054;2023-03-01T07:49:25;26.38;;;14.35;;
19446;SDS011;9862;49.462;11.054;2023-03-01T07:51:53;26.48;;;13.00;;
19446;SDS011;9862;49.462;11.054;2023-03-01T07:54:21;27.63;;;13.20;;
19446;SDS011;9862;49.462;11.054;2023-03-01T07:56:47;25.17;;;12.82;;
19446;SDS011;9862;49.462;11.054;2023-03-01T07:59:14;27.48;;;13.32;;
19446;SDS011;9862;49.462;11.054;2023-03-01T08:01:40;26.48;;;14.07;;
19446;SDS011;9862;49.462;11.054;2023-03-01T08:04:07;22.83;;;13.00;;
19446;SDS011;9862;49.462;11.054;2023-03-01T08:06:34;26.10;;;12.85;;
19446;SDS011;9862;49.462;11.054;2023-03-01T08:09:03;29.83;;;14.02;;
19446;SDS011;9862;49.462;11.054;2023-03-01T08:11:30;29.98;;;13.90;;
19446;SDS011;9862;49.462;11.054;2023-03-01T08:13:56;27.40;;;14.38;;
19446;SDS011;9862;49.462;11.054;2023-03-01T08:16:23;27.15;;;13.73;;
19446;SDS011;9862;49.462;11.054;2023-03-01T08:18:49;26.63;;;13.35;;
19446;SDS011;9862;49.462;11.054;2023-03-01T08:21:17;27.38;;;14.27;;
19446;SDS011;9862;49.462;11.054;2023-03-01T08:23:44;26.63;;;12.95;;
19446;SDS011;9862;49.462;11.054;2023-03-01T08:26:13;23.58;;;13.88;;
19446;SDS011;9862;49.462;11.054;2023-03-01T08:28:41;27.23;;;12.90;;
19446;SDS011;9862;49.462;11.054;2023-03-01T08:31:15;28.33;;;13.90;;
19446;SDS011;9862;49.462;11.054;2023-03-01T08:33:43;25.73;;;13.65;;
19446;SDS011;9862;49.462;11.054;2023-03-01T08:36:15;24.60;;;12.25;;
19446;SDS011;9862;49.462;11.054;2023-03-01T08:38:42;29.60;;;14.32;;
19446;SDS011;9862;49.462;11.054;2023-03-01T08:41:09;26.00;;;13.55;;
19446;SDS011;9862;49.462;11.054;2023-03-01T08:43:37;26.15;;;13.25;;
19446;SDS011;9862;49.462;11.054;2023-03-01T08:46:03;24.55;;;14.52;;
19446;SDS011;9862;49.462;11.054;2023-03-01T08:48:30;25.88;;;13.70;;
19446;SDS011;9862;49.462;11.054;2023-03-01T08:50:57;24.48;;;13.23;;
19446;SDS011;9862;49.462;11.054;2023-03-01T08:53:34;22.30;;;13.02;;
19446;SDS011;9862;49.462;11.054;2023-03-01T08:56:00;25.77;;;13.27;;
19446;SDS011;9862;49.462;11.054;2023-03-01T08:58:28;21.60;;;12.85;;
19446;SDS011;9862;49.462;11.054;2023-03-01T09:00:56;25.15;;;13.10;;
19446;SDS011;9862;49.462;11.054;2023-03-01T09:03:23;24.05;;;12.82;;
19446;SDS011;9862;49.462;11.054;2023-03-01T09:05:49;25.02;;;12.60;;
19446;SDS011;9862;49.462;11.054;2023-03-01T09:08:17;28.17;;;13.57;;
19446;SDS011;9862;49.462;11.054;2023-03-01T09:10:44;26.25;;;13.32;;
19446;SDS011;9862;49.462;11.054;2023-03-01T09:13:11;25.83;;;13.00;;
19446;SDS011;9862;49.462;11.054;2023-03-01T09:15:37;25.40;;;12.73;;
19446;SDS011;9862;49.462;11.054;2023-03-01T09:18:06;27.02;;;14.57;;
19446;SDS011;9862;49.462;11.054;2023-03-01T09:20:32;23.83;;;13.73;;
19446;SDS011;9862;49.462;11.054;2023-03-01T09:22:59;26.20;;;12.95;;
19446;SDS011;9862;49.462;11.054;2023-03-01T09:25:25;30.10;;;13.63;;
19446;SDS011;9862;49.462;11.054;2023-03-01T09:27:53;28.00;;;13.55;;
19446;SDS011;9862;49.462;11.054;2023-03-01T09:30:20;27.83;;;14.02;;
19446;SDS011;9862;49.462;11.054;2023-03-01T09:32:47;26.13;;;13.20;;
19446;SDS011;9862;49.462;11.054;2023-03-01T09:35:15;26.17;;;13.30;;
19446;SDS011;9862;49.462;11.054;2023-03-01T09:37:42;25.08;;;13.52;;
19446;SDS011;9862;49.462;11.054;2023-03-01T09:40:11;20.45;;;12.02;;
19446;SDS011;9862;49.462;11.054;2023-03-01T09:42:45;26.15;;;13.95;;
19446;SDS011;9862;49.462;11.054;2023-03-01T09:45:20;24.27;;;12.93;;
19446;SDS011;9862;49.462;11.054;2023-03-01T09:47:52;25.23;;;14.07;;
19446;SDS011;9862;49.462;11.054;2023-03-01T09:50:21;25.52;;;12.43;;
19446;SDS011;9862;49.462;11.054;2023-03-01T09:52:50;26.30;;;13.57;;
19446;SDS011;9862;49.462;11.054;2023-03-01T09:55:26;25.27;;;11.75;;
19446;SDS011;9862;49.462;11.054;2023-03-01T09:57:58;22.05;;;12.05;;
19446;SDS011;9862;49.462;11.054;2023-03-01T10:00:32;25.15;;;12.57;;
19446;SDS011;9862;49.462;11.054;2023-03-01T10:03:11;29.83;;;13.00;;
19446;SDS011;9862;49.462;11.054;2023-03-01T10:05:59;25.52;;;12.77;;
19446;SDS011;9862;49.462;11.054;2023-03-01T10:08:32;24.52;;;13.85;;
19446;SDS011;9862;49.462;11.054;2023-03-01T10:11:04;27.33;;;13.43;;
19446;SDS011;9862;49.462;11.054;2023-03-01T10:13:33;24.65;;;13.00;;
19446;SDS011;9862;49.462;11.054;2023-03-01T10:16:10;23.40;;;12.57;;
19446;SDS011;9862;49.462;11.054;2023-03-01T10:18:40;23.05;;;13.10;;
19446;SDS011;9862;49.462;11.054;2023-03-01T10:21:12;26.40;;;14.13;;
19446;SDS011;9862;49.462;11.054;2023-03-01T10:23:41;24.13;;;12.82;;
19446;SDS011;9862;49.462;11.054;2023-03-01T10:26:14;25.70;;;13.18;;
19446;SDS011;9862;49.462;11.054;2023-03-01T10:28:53;28.85;;;13.73;;
19446;SDS011;9862;49.462;11.054;2023-03-01T10:31:32;25.15;;;12.32;;
19446;SDS011;9862;49.462;11.054;2023-03-01T10:34:13;25.40;;;13.00;;
19446;SDS011;9862;49.462;11.054;2023-03-01T10:36:43;25.80;;;12.77;;
19446;SDS011;9862;49.462;11.054;2023-03-01T10:39:12;23.42;;;13.05;;
19446;SDS011;9862;49.462;11.054;2023-03-01T10:44:39;28.90;;;13.57;;
19446;SDS011;9862;49.462;11.054;2023-03-01T10:47:13;24.15;;;12.07;;
19446;SDS011;9862;49.462;11.054;2023-03-01T10:49:49;21.85;;;12.30;;
19446;SDS011;9862;49.462;11.054;2023-03-01T10:52:20;28.73;;;13.07;;
19446;SDS011;9862;49.462;11.054;2023-03-01T10:54:52;23.10;;;12.88;;
19446;SDS011;9862;49.462;11.054;2023-03-01T10:57:28;24.90;;;13.07;;
19446;SDS011;9862;49.462;11.054;2023-03-01T11:02:51;25.13;;;12.25;;
19446;SDS011;9862;49.462;11.054;2023-03-01T11:05:29;23.15;;;12.27;;
19446;SDS011;9862;49.462;11.054;2023-03-01T11:08:00;21.30;;;12.80;;
19446;SDS011;9862;49.462;11.054;2023-03-01T11:13:13;21.65;;;11.55;;
19446;SDS011;9862;49.462;11.054;2023-03-01T11:15:42;24.25;;;12.52;;
19446;SDS011;9862;49.462;11.054;2023-03-01T11:18:31;20.77;;;11.52;;
19446;SDS011;9862;49.462;11.054;2023-03-01T11:20:58;19.88;;;11.52;;
19446;SDS011;9862;49.462;11.054;2023-03-01T11:23:29;22.75;;;12.23;;
19446;SDS011;9862;49.462;11.054;2023-03-01T11:25:58;22.77;;;12.02;;
19446;SDS011;9862;49.462;11.054;2023-03-01T11:28:28;24.63;;;12.77;;
19446;SDS011;9862;49.462;11.054;2023-03-01T11:30:56;25.67;;;12.63;;
19446;SDS011;9862;49.462;11.054;2023-03-01T11:33:30;24.83;;;12.23;;
19446;SDS011;9862;49.462;11.054;2023-03-01T11:36:05;26.15;;;12.85;;
19446;SDS011;9862;49.462;11.054;2023-03-01T11:38:35;24.40;;;12.48;;
19446;SDS011;9862;49.462;11.054;2023-03-01T11:41:05;22.20;;;10.82;;
19446;SDS011;9862;49.462;11.054;2023-03-01T11:43:35;20.88;;;11.35;;
19446;SDS011;9862;49.462;11.054;2023-03-01T11:49:21;20.42;;;11.45;;
19446;SDS011;9862;49.462;11.054;2023-03-01T11:52:08;19.55;;;11.23;;
19446;SDS011;9862;49.462;11.054;2023-03-01T11:54:48;22.77;;;11.30;;
19446;SDS011;9862;49.462;11.054;2023-03-01T11:57:30;21.15;;;11.90;;
19446;SDS011;9862;49.462;11.054;2023-03-01T12:00:19;21.73;;;11.85;;
19446;SDS011;9862;49.462;11.054;2023-03-01T12:03:15;22.73;;;11.75;;
19446;SDS011;9862;49.462;11.054;2023-03-01T12:06:04;20.13;;;11.30;;
19446;SDS011;9862;49.462;11.054;2023-03-01T12:08:41;25.05;;;11.75;;
19446;SDS011;9862;49.462;11.054;2023-03-01T12:11:23;21.60;;;11.80;;
19446;SDS011;9862;49.462;11.054;2023-03-01T12:14:04;19.15;;;11.20;;
19446;SDS011;9862;49.462;11.054;2023-03-01T12:17:02;25.75;;;10.73;;
19446;SDS011;9862;49.462;11.054;2023-03-01T12:19:52;21.73;;;11.60;;
19446;SDS011;9862;49.462;11.054;2023-03-01T12:22:29;20.77;;;10.30;;
19446;SDS011;9862;49.462;11.054;2023-03-01T12:28:04;18.13;;;10.65;;
19446;SDS011;9862;49.462;11.054;2023-03-01T12:30:52;20.48;;;10.77;;
19446;SDS011;9862;49.462;11.054;2023-03-01T12:33:28;19.25;;;11.07;;
19446;SDS011;9862;49.462;11.054;2023-03-01T12:39:15;20.20;;;11.02;;
19446;SDS011;9862;49.462;11.054;2023-03-01T12:41:57;20.38;;;11.13;;
19446;SDS011;9862;49.462;11.054;2023-03-01T12:44:43;21.63;;;10.80;;
19446;SDS011;9862;49.462;11.054;2023-03-01T12:47:26;18.45;;;9.93;;
19446;SDS011;9862;49.462;11.054;2023-03-01T12:50:03;21.85;;;10.80;;
19446;SDS011;9862;49.462;11.054;2023-03-01T12:52:38;20.48;;;10.15;;
19446;SDS011;9862;49.462;11.054;2023-03-01T12:55:16;21.40;;;11.32;;
19446;SDS011;9862;49.462;11.054;2023-03-01T12:57:52;19.10;;;10.40;;
19446;SDS011;9862;49.462;11.054;2023-03-01T13:00:30;23.42;;;11.40;;
19446;SDS011;9862;49.462;11.054;2023-03-01T13:03:05;17.25;;;10.10;;
19446;SDS011;9862;49.462;11.054;2023-03-01T13:05:42;18.58;;;10.73;;
19446;SDS011;9862;49.462;11.054;2023-03-01T13:08:22;17.95;;;9.90;;
19446;SDS011;9862;49.462;11.054;2023-03-01T13:10:58;18.48;;;10.00;;
19446;SDS011;9862;49.462;11.054;2023-03-01T13:13:28;17.15;;;9.32;;
19446;SDS011;9862;49.462;11.054;2023-03-01T13:15:57;18.77;;;10.30;;
19446;SDS011;9862;49.462;11.054;2023-03-01T13:19:07;15.35;;;9.55;;
19446;SDS011;9862;49.462;11.054;2023-03-01T13:21:39;19.13;;;10.18;;
19446;SDS011;9862;49.462;11.054;2023-03-01T13:27:08;16.52;;;10.20;;
19446;SDS011;9862;49.462;11.054;2023-03-01T13:29:50;16.83;;;10.63;;
19446;SDS011;9862;49.462;11.054;2023-03-01T13:32:21;20.33;;;10.60;;
19446;SDS011;9862;49.462;11.054;2023-03-01T13:34:51;19.55;;;10.27;;
19446;SDS011;9862;49.462;11.054;2023-03-01T13:37:19;17.23;;;9.75;;
19446;SDS011;9862;49.462;11.054;2023-03-01T13:39:48;15.43;;;9.65;;
19446;SDS011;9862;49.462;11.054;2023-03-01T13:42:33;20.48;;;10.32;;
19446;SDS011;9862;49.462;11.054;2023-03-01T13:45:03;16.00;;;9.80;;
19446;SDS011;9862;49.462;11.054;2023-03-01T13:47:40;17.92;;;9.57;;
19446;SDS011;9862;49.462;11.054;2023-03-01T13:50:16;19.08;;;10.88;;
19446;SDS011;9862;49.462;11.054;2023-03-01T13:52:47;17.27;;;9.82;;
19446;SDS011;9862;49.462;11.054;2023-03-01T13:55:18;16.45;;;10.18;;
19446;SDS011;9862;49.462;11.054;2023-03-01T13:57:50;19.90;;;8.95;;
19446;SDS011;9862;49.462;11.054;2023-03-01T14:00:28;18.85;;;9.80;;
19446;SDS011;9862;49.462;11.054;2023-03-01T14:03:05;17.50;;;10.27;;
19446;SDS011;9862;49.462;11.054;2023-03-01T14:05:36;16.27;;;10.05;;
19446;SDS011;9862;49.462;11.054;2023-03-01T14:08:04;19.40;;;11.55;;
19446;SDS011;9862;49.462;11.054;2023-03-01T14:10:34;20.58;;;11.05;;
19446;SDS011;9862;49.462;11.054;2023-03-01T14:13:13;21.08;;;10.35;;
19446;SDS011;9862;49.462;11.054;2023-03-01T14:15:56;18.88;;;10.35;;
19446;SDS011;9862;49.462;11.054;2023-03-01T14:18:42;20.23;;;10.57;;
19446;SDS011;9862;49.462;11.054;2023-03-01T14:21:18;21.23;;;10.80;;
19446;SDS011;9862;49.462;11.054;2023-03-01T14:23:45;17.40;;;10.15;;
19446;SDS011;9862;49.462;11.054;2023-03-01T14:26:12;18.95;;;11.13;;
19446;SDS011;9862;49.462;11.054;2023-03-01T14:28:39;16.80;;;9.90;;
19446;SDS011;9862;49.462;11.054;2023-03-01T14:34:03;18.17;;;11.52;;
19446;SDS011;9862;49.462;11.054;2023-03-01T14:36:33;20.33;;;10.80;;
19446;SDS011;9862;49.462;11.054;2023-03-01T14:39:00;21.20;;;11.27;;
19446;SDS011;9862;49.462;11.054;2023-03-01T14:41:31;19.92;;;11.68;;
19446;SDS011;9862;49.462;11.054;2023-03-01T14:44:02;18.33;;;10.65;;
19446;SDS011;9862;49.462;11.054;2023-03-01T14:46:32;20.77;;;10.88;;
19446;SDS011;9862;49.462;11.054;2023-03-01T14:49:02;20.35;;;11.05;;
19446;SDS011;9862;49.462;11.054;2023-03-01T14:51:30;19.52;;;10.25;;
19446;SDS011;9862;49.462;11.054;2023-03-01T14:53:58;17.25;;;10.63;;
19446;SDS011;9862;49.462;11.054;2023-03-01T14:56:24;19.08;;;11.93;;
19446;SDS011;9862;49.462;11.054;2023-03-01T14:58:51;22.38;;;11.65;;
19446;SDS011;9862;49.462;11.054;2023-03-01T15:01:18;19.30;;;11.18;;